createdAt,value
2022-08-26T00:02:20.963Z,100401.97
2022-08-26T00:06:24.701Z,100412.59
2022-08-26T00:10:27.799Z,100420.94
2022-08-26T00:14:31.606Z,100417.34
2022-08-26T00:18:38.783Z,100430.94
2022-08-26T00:22:43.883Z,100443.47
2022-08-26T00:26:47.758Z,100444.88
2022-08-26T00:30:51.609Z,100428.19
2022-08-26T00:34:56.528Z,100433.75
2022-08-26T00:38:59.998Z,100431.53
2022-08-26T00:43:09.313Z,100440.72
2022-08-26T00:47:22.497Z,100452.69
2022-08-26T00:51:29.948Z,100450.19
2022-08-26T00:55:38.199Z,100447.41
2022-08-26T00:59:41.771Z,100447.13
2022-08-26T01:03:47.043Z,100449.34
2022-08-26T01:07:51.565Z,100451.03
2022-08-26T01:11:57.457Z,100441.59
2022-08-26T01:16:03.792Z,100459.34
2022-08-26T01:20:13.677Z,100457.69
2022-08-26T01:24:19.420Z,100463.81
2022-08-26T01:28:28.222Z,100460.22
2022-08-26T01:32:34.012Z,100465.47
2022-08-26T01:36:38.361Z,100464.38
2022-08-26T01:40:44.097Z,100474.38
2022-08-26T01:50:49.239Z,100475.50
2022-08-26T01:54:53.072Z,100476.59
2022-08-26T01:59:00.542Z,100467.75
2022-08-26T02:03:17.636Z,100471.63
2022-08-26T02:07:22.577Z,100474.41
2022-08-26T02:11:29.985Z,100470.22
2022-08-26T02:15:34.578Z,100486.09
2022-08-26T02:19:41.976Z,100483.88
2022-08-26T02:23:45.594Z,100477.75
2022-08-26T02:27:49.033Z,100485.53
2022-08-26T02:31:55.795Z,100496.66
2022-08-26T02:35:59.091Z,100493.88
2022-08-26T02:40:03.118Z,100490.25
2022-08-26T02:44:07.227Z,100498.31
2022-08-26T02:48:13.954Z,100487.75
2022-08-26T02:52:16.980Z,100492.75
2022-08-26T02:56:19.961Z,100485.53
2022-08-26T03:00:23.795Z,100489.41
2022-08-26T03:04:28.319Z,100491.38
2022-08-26T03:08:31.308Z,100492.19
2022-08-26T03:12:34.335Z,100484.69
2022-08-26T03:16:38.265Z,100481.34
2022-08-26T03:20:42.507Z,100489.13
2022-08-26T03:24:47.023Z,100482.72
2022-08-26T03:29:04.037Z,100480.53
2022-08-26T03:33:08.592Z,100488.03
2022-08-26T03:37:13.762Z,100483.31
2022-08-26T03:41:18.088Z,100484.13
2022-08-26T03:45:21.913Z,100479.97
2022-08-26T03:49:25.086Z,100481.09
2022-08-26T03:53:33.316Z,100493.88
2022-08-26T03:57:39.392Z,100483.56
2022-08-26T04:01:42.496Z,100497.75
2022-08-26T04:05:45.735Z,100494.97
2022-08-26T04:09:50.343Z,100493.31
2022-08-26T04:13:53.518Z,100495.25
2022-08-26T04:17:57.516Z,100494.69
2022-08-26T04:22:00.992Z,100487.72
2022-08-26T04:26:05.875Z,100489.69
2022-08-26T04:30:10.553Z,100486.09
2022-08-26T04:34:14.222Z,100493.31
2022-08-26T04:38:20.013Z,100488.31
2022-08-26T04:42:26.097Z,100493.31
2022-08-26T04:46:29.624Z,100484.69
2022-08-26T04:50:32.998Z,100497.19
2022-08-26T04:54:36.162Z,100492.75
2022-08-26T04:58:41.324Z,100498.03
2022-08-26T05:02:44.688Z,100499.69
2022-08-26T05:06:48.293Z,100496.09
2022-08-26T05:10:54.720Z,100491.06
2022-08-26T05:15:00.417Z,100493.03
2022-08-26T05:19:03.646Z,100501.66
2022-08-26T05:23:06.887Z,100499.44
2022-08-26T05:27:12.494Z,100499.44
2022-08-26T05:31:19.015Z,100504.97
2022-08-26T05:35:22.988Z,100506.66
2022-08-26T05:39:26.163Z,100507.47
2022-08-26T05:43:29.229Z,100508.88
2022-08-26T05:47:34.595Z,100507.22
2022-08-26T05:51:37.901Z,100517.50
2022-08-26T05:55:44.863Z,100521.38
2022-08-26T05:59:48.420Z,100524.72
2022-08-26T06:03:57.066Z,100531.13
2022-08-26T06:08:19.175Z,100531.13
2022-08-26T06:12:22.524Z,100528.34
2022-08-26T06:16:25.942Z,100526.09
2022-08-26T06:20:32.085Z,100528.34
2022-08-26T06:24:52.787Z,100536.97
2022-08-26T06:28:56.292Z,100529.44
2022-08-26T06:32:59.350Z,100533.91
2022-08-26T06:37:06.373Z,100531.66
2022-08-26T06:41:11.555Z,100539.47
2022-08-26T06:45:14.615Z,100542.25
2022-08-26T06:49:17.764Z,100533.91
2022-08-26T06:53:22.124Z,100550.88
2022-08-26T06:57:25.201Z,100549.47
2022-08-26T07:01:30.607Z,100547.53
2022-08-26T07:05:35.832Z,100550.56
2022-08-26T07:09:40.133Z,100548.34
2022-08-26T07:13:43.840Z,100557.28
2022-08-26T07:17:47.006Z,100558.97
2022-08-26T07:21:50.074Z,100560.88
2022-08-26T07:25:54.484Z,100562.84
2022-08-26T07:29:58.758Z,100555.06
2022-08-26T07:34:02.016Z,100563.41
2022-08-26T07:38:06.887Z,100562.56
2022-08-26T07:42:13.107Z,100572.88
2022-08-26T07:46:20.722Z,100567.00
2022-08-26T07:50:49.988Z,100570.63
2022-08-26T07:54:53.476Z,100580.91
2022-08-26T07:58:57.918Z,100580.56
2022-08-26T08:03:01.270Z,100581.06
2022-08-26T08:07:04.421Z,100569.09
2022-08-26T08:11:11.488Z,100578.78
2022-08-26T08:15:17.133Z,100570.47
2022-08-26T08:19:20.185Z,100574.38
2022-08-26T08:23:25.154Z,100560.94
2022-08-26T08:27:28.881Z,100561.13
2022-08-26T08:35:57.555Z,100587.31
2022-08-26T08:40:00.796Z,100586.88
2022-08-26T08:44:05.415Z,100595.88
2022-08-26T08:48:16.994Z,100591.78
2022-08-26T08:52:29.845Z,100576.97
2022-08-26T08:56:36.320Z,100577.41
2022-08-26T09:00:46.471Z,100590.47
2022-08-26T09:05:18.479Z,100582.09
2022-08-26T09:09:25.087Z,100590.94
2022-08-26T09:13:29.227Z,100593.25
2022-08-26T09:17:43.007Z,100607.94
2022-08-26T09:21:56.853Z,100602.19
2022-08-26T09:26:02.130Z,100603.78
2022-08-26T09:30:11.446Z,100607.03
2022-08-26T09:34:17.979Z,100606.09
2022-08-26T09:38:28.147Z,100612.00
2022-08-26T09:42:31.284Z,100609.97
2022-08-26T09:46:34.595Z,100611.06
2022-08-26T09:50:39.570Z,100619.25
2022-08-26T09:54:46.263Z,100618.75
2022-08-26T09:58:49.714Z,100619.22
2022-08-26T10:02:56.047Z,100626.13
2022-08-26T10:07:04.907Z,100617.78
2022-08-26T10:11:19.076Z,100615.28
2022-08-26T10:15:26.472Z,100619.41
2022-08-26T10:19:41.796Z,100608.41
2022-08-26T10:24:03.243Z,100618.84
2022-08-26T10:28:18.878Z,100598.06
2022-08-26T10:32:27.773Z,100605.91
2022-08-26T10:37:14.316Z,100605.78
2022-08-26T10:41:24.695Z,100595.75
2022-08-26T10:45:31.909Z,100603.59
2022-08-26T10:49:35.025Z,100585.47
2022-08-26T10:53:46.075Z,100604.50
2022-08-26T10:58:04.723Z,100595.28
2022-08-26T11:02:14.914Z,100592.91
2022-08-26T11:06:23.952Z,100590.16
2022-08-26T11:11:03.421Z,100588.56
2022-08-26T11:15:08.340Z,100595.09
2022-08-26T11:20:00.092Z,100595.25
2022-08-26T11:24:07.694Z,100591.63
2022-08-26T11:28:11.235Z,100587.25
2022-08-26T11:32:26.386Z,100593.59
2022-08-26T11:37:02.514Z,100592.94
2022-08-26T11:41:11.599Z,100591.19
2022-08-26T11:45:22.848Z,100599.13
2022-08-26T11:49:28.326Z,100596.91
2022-08-26T11:53:33.934Z,100590.81
2022-08-26T11:57:45.042Z,100592.97
2022-08-26T12:01:51.962Z,100589.09
2022-08-26T12:05:55.586Z,100599.19
2022-08-26T12:10:02.123Z,100603.66
2022-08-26T12:14:09.865Z,100600.25
2022-08-26T12:18:28.851Z,100597.38
2022-08-26T12:22:36.067Z,100598.31
2022-08-26T12:26:39.643Z,100606.59
2022-08-26T12:30:59.693Z,100602.38
2022-08-26T12:39:24.777Z,100595.25
2022-08-26T12:43:40.053Z,100604.16
2022-08-26T12:47:46.342Z,100619.84
2022-08-26T12:51:51.325Z,100622.16
2022-08-26T14:12:33.810Z,100577.19
2022-08-26T14:16:58.982Z,100565.97
2022-08-26T14:21:03.271Z,100562.03
2022-08-26T14:25:07.032Z,100574.59
2022-08-26T14:29:14.701Z,100578.78
2022-08-26T14:33:23.311Z,100571.75
2022-08-26T14:37:26.501Z,100603.09
2022-08-26T14:41:31.358Z,100602.75
2022-08-26T14:49:41.759Z,100609.56
2022-08-26T14:54:02.299Z,100608.19
2022-08-26T14:58:05.569Z,100609.59
2022-08-26T15:02:13.639Z,100609.56
2022-08-26T15:06:25.478Z,100612.88
2022-08-26T15:10:28.471Z,100616.22
2022-08-26T15:14:33.058Z,100622.88
2022-08-26T15:18:37.755Z,100615.66
2022-08-26T15:22:42.456Z,100617.06
2022-08-26T15:26:46.803Z,100607.56
2022-08-26T15:30:50.149Z,100603.94
2022-08-26T15:34:54.672Z,100598.97
2022-08-26T15:39:01.418Z,100603.72
2022-08-26T15:43:18.454Z,100604.53
2022-08-26T15:47:28.188Z,100605.63
2022-08-26T15:51:35.500Z,100602.31
2022-08-26T15:55:49.448Z,100591.44
2022-08-26T15:59:52.890Z,100599.78
2022-08-26T16:03:56.104Z,100596.72
2022-08-26T16:08:02.041Z,100592.47
2022-08-26T16:12:05.749Z,100593.38
2022-08-26T16:16:12.521Z,100594.25
2022-08-26T16:20:17.108Z,100588.69
2022-08-26T16:24:24.797Z,100590.31
2022-08-26T16:28:30.323Z,100590.03
2022-08-26T16:32:33.424Z,100582.84
2022-08-26T16:36:37.941Z,100589.25
2022-08-26T16:40:42.391Z,100590.94
2022-08-26T16:44:45.646Z,100590.06
2022-08-26T16:48:48.916Z,100591.50
2022-08-26T16:52:55.645Z,100592.31
2022-08-26T16:57:00.257Z,100584.81
2022-08-26T18:23:56.360Z,100610.13
2022-08-26T18:27:59.411Z,100606.22
2022-08-26T18:32:02.598Z,100606.22
2022-08-26T18:36:06.232Z,100607.31
2022-08-26T18:40:12.982Z,100609.00
2022-08-26T18:44:18.552Z,100612.88
2022-08-26T18:48:23.068Z,100612.31
2022-08-26T18:52:26.147Z,100615.41
2022-08-26T18:56:31.630Z,100620.94
2022-08-26T19:00:34.854Z,100632.91
2022-08-26T19:04:38.665Z,100637.22
2022-08-26T19:08:44.618Z,100644.91
2022-08-26T19:12:51.911Z,100651.47
2022-08-26T19:16:55.583Z,100649.25
2022-08-26T19:20:58.691Z,100653.13
2022-08-26T19:25:01.896Z,100652.59
2022-08-26T19:29:07.116Z,100666.50
2022-08-26T19:33:11.583Z,100652.06
2022-08-26T19:37:15.029Z,100640.72
2022-08-26T19:41:20.458Z,100627.44
2022-08-26T19:45:25.582Z,100629.38
2022-08-26T19:49:28.783Z,100629.13
2022-08-26T19:53:31.870Z,100623.88
2022-08-26T19:57:35.487Z,100630.25
2022-08-26T20:01:40.215Z,100622.78
2022-08-26T20:05:43.755Z,100630.56
2022-08-26T20:09:48.023Z,100626.66
2022-08-26T20:13:51.347Z,100630.25
2022-08-26T20:17:55.927Z,100613.00
2022-08-26T20:21:59.117Z,100613.22
2022-08-26T20:26:02.156Z,100615.72
2022-08-26T20:30:09.295Z,100627.38
2022-08-26T20:34:15.431Z,100628.72
2022-08-26T20:38:21.615Z,100622.00
2022-08-26T20:42:26.207Z,100628.66
2022-08-26T20:46:29.641Z,100625.31
2022-08-26T20:50:34.244Z,100626.88
2022-08-26T20:54:37.308Z,100638.56
2022-08-26T20:58:41.092Z,100638.44
2022-08-26T21:02:44.186Z,100647.84
2022-08-26T21:06:52.887Z,100661.75
2022-08-26T21:10:56.248Z,100656.28
2022-08-26T21:14:59.518Z,100649.63
2022-08-26T21:19:02.620Z,100651.28
2022-08-26T21:23:07.262Z,100654.63
2022-08-26T21:27:10.357Z,100647.94
2022-08-26T21:31:16.148Z,100645.22
2022-08-26T21:35:19.234Z,100646.88
2022-08-26T21:39:23.712Z,100648.28
2022-08-26T21:43:35.595Z,100641.88
2022-08-26T21:47:39.655Z,100639.63
2022-08-26T21:51:46.178Z,100642.91
2022-08-26T21:55:50.645Z,100653.47
2022-08-26T21:59:54.017Z,100641.75
2022-08-26T22:03:57.412Z,100635.88
2022-08-26T22:08:00.451Z,100644.50
2022-08-26T22:12:05.838Z,100644.41
2022-08-26T22:16:10.009Z,100641.66
2022-08-26T22:20:16.365Z,100642.75
2022-08-26T22:24:21.844Z,100657.47
2022-08-26T22:28:26.296Z,100649.34
2022-08-26T22:32:29.325Z,100650.69
2022-08-26T22:36:32.427Z,100656.50
2022-08-26T22:40:36.274Z,100659.22
2022-08-26T22:44:41.274Z,100662.56
2022-08-26T22:48:44.842Z,100658.88
2022-08-26T22:52:47.935Z,100661.94
2022-08-26T22:56:51.029Z,100665.72
2022-08-26T23:00:55.710Z,100662.22
2022-08-26T23:04:58.818Z,100664.06
2022-08-26T23:09:01.921Z,100667.22
2022-08-26T23:13:07.775Z,100668.25
2022-08-26T23:17:14.372Z,100666.84
2022-08-26T23:21:17.467Z,100681.19
2022-08-26T23:25:20.754Z,100667.34
2022-08-26T23:29:23.999Z,100672.59
2022-08-26T23:33:48.747Z,100669.44
2022-08-26T23:37:53.106Z,100664.72
2022-08-26T23:41:56.953Z,100671.00
2022-08-26T23:46:00.201Z,100670.19
2022-08-26T23:50:05.073Z,100670.88
2022-08-26T23:54:07.329Z,100678.91
2022-08-26T23:58:11.419Z,100680.28
